sensor_id;sensor_type;location;lat;lon;timestamp;temperature;humidity
55036;DHT22;40936;53.008;6.556;2022-10-23T00:01:31;19.20;99.90
55036;DHT22;40936;53.008;6.556;2022-10-23T00:04:03;17.90;99.90
55036;DHT22;40936;53.008;6.556;2022-10-23T00:06:31;18.90;99.90
55036;DHT22;40936;53.008;6.556;2022-10-23T00:08:57;17.80;99.90
55036;DHT22;40936;53.008;6.556;2022-10-23T00:11:26;19.10;99.90
55036;DHT22;40936;53.008;6.556;2022-10-23T00:13:54;18.90;99.90
55036;DHT22;40936;53.008;6.556;2022-10-23T00:16:20;18.90;99.90
55036;DHT22;40936;53.008;6.556;2022-10-23T00:18:45;18.50;99.90
55036;DHT22;40936;53.008;6.556;2022-10-23T00:21:14;17.70;99.90
55036;DHT22;40936;53.008;6.556;2022-10-23T00:23:40;18.10;99.90
55036;DHT22;40936;53.008;6.556;2022-10-23T00:26:07;18.90;99.90
55036;DHT22;40936;53.008;6.556;2022-10-23T00:28:33;17.70;99.90
55036;DHT22;40936;53.008;6.556;2022-10-23T00:31:03;18.90;99.90
55036;DHT22;40936;53.008;6.556;2022-10-23T00:33:29;17.90;99.90
55036;DHT22;40936;53.008;6.556;2022-10-23T00:35:55;18.70;99.90
55036;DHT22;40936;53.008;6.556;2022-10-23T00:38:21;18.90;99.90
55036;DHT22;40936;53.008;6.556;2022-10-23T00:40:47;18.70;99.90
55036;DHT22;40936;53.008;6.556;2022-10-23T00:43:17;18.20;99.90
55036;DHT22;40936;53.008;6.556;2022-10-23T00:45:43;18.80;99.90
55036;DHT22;40936;53.008;6.556;2022-10-23T00:48:08;19.10;99.90
55036;DHT22;40936;53.008;6.556;2022-10-23T00:50:34;19.40;99.90
55036;DHT22;40936;53.008;6.556;2022-10-23T00:53:02;19.40;99.90
55036;DHT22;40936;53.008;6.556;2022-10-23T00:55:29;18.20;99.90
55036;DHT22;40936;53.008;6.556;2022-10-23T00:57:56;18.40;99.90
55036;DHT22;40936;53.008;6.556;2022-10-23T01:00:27;18.10;99.90
55036;DHT22;40936;53.008;6.556;2022-10-23T01:02:54;19.40;99.90
55036;DHT22;40936;53.008;6.556;2022-10-23T01:05:26;18.10;99.90
55036;DHT22;40936;53.008;6.556;2022-10-23T01:08:03;18.10;99.90
55036;DHT22;40936;53.008;6.556;2022-10-23T01:10:35;19.30;99.90
55036;DHT22;40936;53.008;6.556;2022-10-23T01:13:16;18.40;99.90
55036;DHT22;40936;53.008;6.556;2022-10-23T01:20:47;18.20;99.90
55036;DHT22;40936;53.008;6.556;2022-10-23T01:23:54;18.90;99.90
55036;DHT22;40936;53.008;6.556;2022-10-23T01:26:54;18.80;99.90
55036;DHT22;40936;53.008;6.556;2022-10-23T01:32:50;18.10;99.90
55036;DHT22;40936;53.008;6.556;2022-10-23T01:35:15;18.10;99.90
55036;DHT22;40936;53.008;6.556;2022-10-23T01:37:46;18.00;99.90
55036;DHT22;40936;53.008;6.556;2022-10-23T01:40:23;17.90;99.90
55036;DHT22;40936;53.008;6.556;2022-10-23T01:42:53;17.80;99.90
55036;DHT22;40936;53.008;6.556;2022-10-23T01:45:25;17.80;99.90
55036;DHT22;40936;53.008;6.556;2022-10-23T01:47:54;18.80;99.90
55036;DHT22;40936;53.008;6.556;2022-10-23T01:50:23;19.00;99.90
55036;DHT22;40936;53.008;6.556;2022-10-23T01:52:48;17.90;99.90
55036;DHT22;40936;53.008;6.556;2022-10-23T01:55:15;17.90;99.90
55036;DHT22;40936;53.008;6.556;2022-10-23T01:57:43;18.90;99.90
55036;DHT22;40936;53.008;6.556;2022-10-23T02:00:14;18.20;99.90
55036;DHT22;40936;53.008;6.556;2022-10-23T02:02:41;18.90;99.90
55036;DHT22;40936;53.008;6.556;2022-10-23T02:05:09;17.80;99.90
55036;DHT22;40936;53.008;6.556;2022-10-23T02:07:36;18.90;99.90
55036;DHT22;40936;53.008;6.556;2022-10-23T02:10:05;19.00;99.90
55036;DHT22;40936;53.008;6.556;2022-10-23T02:13:02;18.10;99.90
55036;DHT22;40936;53.008;6.556;2022-10-23T02:15:36;17.90;99.90
55036;DHT22;40936;53.008;6.556;2022-10-23T02:20:42;17.60;99.90
55036;DHT22;40936;53.008;6.556;2022-10-23T02:23:19;17.60;99.90
55036;DHT22;40936;53.008;6.556;2022-10-23T02:25:50;18.70;99.90
55036;DHT22;40936;53.008;6.556;2022-10-23T02:28:23;17.90;99.90
55036;DHT22;40936;53.008;6.556;2022-10-23T02:30:50;18.60;99.90
55036;DHT22;40936;53.008;6.556;2022-10-23T02:33:16;18.70;99.90
55036;DHT22;40936;53.008;6.556;2022-10-23T02:35:44;18.80;99.90
55036;DHT22;40936;53.008;6.556;2022-10-23T02:40:59;19.00;99.90
55036;DHT22;40936;53.008;6.556;2022-10-23T02:43:34;17.80;99.90
55036;DHT22;40936;53.008;6.556;2022-10-23T02:48:46;18.90;99.90
55036;DHT22;40936;53.008;6.556;2022-10-23T02:51:53;18.80;99.90
55036;DHT22;40936;53.008;6.556;2022-10-23T02:57:31;17.50;99.90
55036;DHT22;40936;53.008;6.556;2022-10-23T03:00:09;18.80;99.90
55036;DHT22;40936;53.008;6.556;2022-10-23T03:03:09;17.60;99.90
55036;DHT22;40936;53.008;6.556;2022-10-23T03:05:38;17.60;99.90
55036;DHT22;40936;53.008;6.556;2022-10-23T03:08:07;18.80;99.90
55036;DHT22;40936;53.008;6.556;2022-10-23T03:10:34;17.50;99.90
55036;DHT22;40936;53.008;6.556;2022-10-23T03:12:59;17.50;99.90
55036;DHT22;40936;53.008;6.556;2022-10-23T03:15:25;18.80;99.90
55036;DHT22;40936;53.008;6.556;2022-10-23T03:17:51;17.60;99.90
55036;DHT22;40936;53.008;6.556;2022-10-23T03:20:16;18.10;99.90
55036;DHT22;40936;53.008;6.556;2022-10-23T03:22:42;17.50;99.90
55036;DHT22;40936;53.008;6.556;2022-10-23T03:25:08;18.60;99.90
55036;DHT22;40936;53.008;6.556;2022-10-23T03:27:34;18.40;99.90
55036;DHT22;40936;53.008;6.556;2022-10-23T03:30:00;18.60;99.90
55036;DHT22;40936;53.008;6.556;2022-10-23T03:32:26;17.40;99.90
55036;DHT22;40936;53.008;6.556;2022-10-23T03:34:52;17.30;99.90
55036;DHT22;40936;53.008;6.556;2022-10-23T03:37:17;18.60;99.90
55036;DHT22;40936;53.008;6.556;2022-10-23T03:39:43;18.10;99.90
55036;DHT22;40936;53.008;6.556;2022-10-23T03:42:08;18.60;99.90
55036;DHT22;40936;53.008;6.556;2022-10-23T03:44:34;18.60;99.90
55036;DHT22;40936;53.008;6.556;2022-10-23T03:47:00;18.00;99.90
55036;DHT22;40936;53.008;6.556;2022-10-23T03:49:26;18.60;99.90
55036;DHT22;40936;53.008;6.556;2022-10-23T03:51:51;17.30;99.90
55036;DHT22;40936;53.008;6.556;2022-10-23T03:54:27;17.40;99.90
55036;DHT22;40936;53.008;6.556;2022-10-23T03:56:54;18.50;99.90
55036;DHT22;40936;53.008;6.556;2022-10-23T03:59:20;17.60;99.90
55036;DHT22;40936;53.008;6.556;2022-10-23T04:01:46;18.50;99.90
55036;DHT22;40936;53.008;6.556;2022-10-23T04:04:12;18.60;99.90
55036;DHT22;40936;53.008;6.556;2022-10-23T04:06:38;18.60;99.90
55036;DHT22;40936;53.008;6.556;2022-10-23T04:09:05;17.70;99.90
55036;DHT22;40936;53.008;6.556;2022-10-23T04:11:31;18.60;99.90
55036;DHT22;40936;53.008;6.556;2022-10-23T04:13:57;17.30;99.90
55036;DHT22;40936;53.008;6.556;2022-10-23T04:16:23;18.50;99.90
55036;DHT22;40936;53.008;6.556;2022-10-23T04:18:49;18.50;99.90
55036;DHT22;40936;53.008;6.556;2022-10-23T04:21:15;17.20;99.90
55036;DHT22;40936;53.008;6.556;2022-10-23T04:23:41;17.30;99.90
55036;DHT22;40936;53.008;6.556;2022-10-23T04:26:07;17.30;99.90
55036;DHT22;40936;53.008;6.556;2022-10-23T04:28:33;18.80;99.90
55036;DHT22;40936;53.008;6.556;2022-10-23T04:30:59;17.30;99.90
55036;DHT22;40936;53.008;6.556;2022-10-23T04:33:25;17.50;99.90
55036;DHT22;40936;53.008;6.556;2022-10-23T04:35:50;17.90;99.90
55036;DHT22;40936;53.008;6.556;2022-10-23T04:38:16;17.30;99.90
55036;DHT22;40936;53.008;6.556;2022-10-23T04:40:42;18.50;99.90
55036;DHT22;40936;53.008;6.556;2022-10-23T04:43:07;17.20;99.90
55036;DHT22;40936;53.008;6.556;2022-10-23T04:45:33;18.00;99.90
55036;DHT22;40936;53.008;6.556;2022-10-23T04:47:59;17.80;99.90
55036;DHT22;40936;53.008;6.556;2022-10-23T04:50:24;17.90;99.90
55036;DHT22;40936;53.008;6.556;2022-10-23T04:52:55;17.70;99.90
55036;DHT22;40936;53.008;6.556;2022-10-23T04:55:21;17.80;99.90
55036;DHT22;40936;53.008;6.556;2022-10-23T04:57:46;17.10;99.90
55036;DHT22;40936;53.008;6.556;2022-10-23T05:00:13;17.20;99.90
55036;DHT22;40936;53.008;6.556;2022-10-23T05:02:40;18.00;99.90
55036;DHT22;40936;53.008;6.556;2022-10-23T05:05:06;17.90;99.90
55036;DHT22;40936;53.008;6.556;2022-10-23T05:07:33;17.40;99.90
55036;DHT22;40936;53.008;6.556;2022-10-23T05:09:59;17.30;99.90
55036;DHT22;40936;53.008;6.556;2022-10-23T05:12:25;17.50;99.90
55036;DHT22;40936;53.008;6.556;2022-10-23T05:14:52;18.60;99.90
55036;DHT22;40936;53.008;6.556;2022-10-23T05:17:21;17.40;99.90
55036;DHT22;40936;53.008;6.556;2022-10-23T05:19:53;18.40;99.90
55036;DHT22;40936;53.008;6.556;2022-10-23T05:22:21;17.50;99.90
55036;DHT22;40936;53.008;6.556;2022-10-23T05:24:49;18.10;99.90
55036;DHT22;40936;53.008;6.556;2022-10-23T05:27:15;17.70;99.90
55036;DHT22;40936;53.008;6.556;2022-10-23T05:29:40;17.40;99.90
55036;DHT22;40936;53.008;6.556;2022-10-23T05:32:08;17.30;99.90
55036;DHT22;40936;53.008;6.556;2022-10-23T05:34:35;17.90;99.90
55036;DHT22;40936;53.008;6.556;2022-10-23T05:37:02;18.50;99.90
55036;DHT22;40936;53.008;6.556;2022-10-23T05:39:29;17.60;99.90
55036;DHT22;40936;53.008;6.556;2022-10-23T05:41:55;17.80;99.90
55036;DHT22;40936;53.008;6.556;2022-10-23T05:44:20;18.00;99.90
55036;DHT22;40936;53.008;6.556;2022-10-23T05:46:46;18.50;99.90
55036;DHT22;40936;53.008;6.556;2022-10-23T05:49:12;17.30;99.90
55036;DHT22;40936;53.008;6.556;2022-10-23T05:51:39;18.30;99.90
55036;DHT22;40936;53.008;6.556;2022-10-23T05:54:05;17.40;99.90
55036;DHT22;40936;53.008;6.556;2022-10-23T05:56:37;18.40;99.90
55036;DHT22;40936;53.008;6.556;2022-10-23T05:59:03;18.60;99.90
55036;DHT22;40936;53.008;6.556;2022-10-23T06:01:29;18.60;99.90
55036;DHT22;40936;53.008;6.556;2022-10-23T06:03:55;17.30;99.90
55036;DHT22;40936;53.008;6.556;2022-10-23T06:06:21;17.30;99.90
55036;DHT22;40936;53.008;6.556;2022-10-23T06:08:46;18.60;99.90
55036;DHT22;40936;53.008;6.556;2022-10-23T06:11:13;17.40;99.90
55036;DHT22;40936;53.008;6.556;2022-10-23T06:13:41;17.50;99.90
55036;DHT22;40936;53.008;6.556;2022-10-23T06:16:13;17.40;99.90
55036;DHT22;40936;53.008;6.556;2022-10-23T06:18:39;17.50;99.90
55036;DHT22;40936;53.008;6.556;2022-10-23T06:21:05;17.60;99.90
55036;DHT22;40936;53.008;6.556;2022-10-23T06:23:32;18.10;99.90
55036;DHT22;40936;53.008;6.556;2022-10-23T06:25:58;18.70;99.90
55036;DHT22;40936;53.008;6.556;2022-10-23T06:28:23;17.60;99.90
55036;DHT22;40936;53.008;6.556;2022-10-23T06:30:49;18.10;99.90
55036;DHT22;40936;53.008;6.556;2022-10-23T06:33:15;17.80;99.90
55036;DHT22;40936;53.008;6.556;2022-10-23T06:35:40;18.70;99.90
55036;DHT22;40936;53.008;6.556;2022-10-23T06:38:06;18.40;99.90
55036;DHT22;40936;53.008;6.556;2022-10-23T06:40:33;18.30;99.90
55036;DHT22;40936;53.008;6.556;2022-10-23T06:42:59;17.80;99.90
55036;DHT22;40936;53.008;6.556;2022-10-23T06:45:25;17.80;99.90
55036;DHT22;40936;53.008;6.556;2022-10-23T06:47:51;19.00;99.90
55036;DHT22;40936;53.008;6.556;2022-10-23T06:50:17;17.90;99.90
55036;DHT22;40936;53.008;6.556;2022-10-23T06:52:43;17.80;99.90
55036;DHT22;40936;53.008;6.556;2022-10-23T06:55:09;18.80;99.90
55036;DHT22;40936;53.008;6.556;2022-10-23T06:57:35;19.10;99.90
55036;DHT22;40936;53.008;6.556;2022-10-23T07:00:01;18.60;99.90
55036;DHT22;40936;53.008;6.556;2022-10-23T07:02:26;17.90;99.90
55036;DHT22;40936;53.008;6.556;2022-10-23T07:04:52;19.20;99.90
55036;DHT22;40936;53.008;6.556;2022-10-23T07:07:18;19.30;99.90
55036;DHT22;40936;53.008;6.556;2022-10-23T07:09:43;18.10;99.90
55036;DHT22;40936;53.008;6.556;2022-10-23T07:12:09;19.50;99.90
55036;DHT22;40936;53.008;6.556;2022-10-23T07:14:35;19.40;99.90
55036;DHT22;40936;53.008;6.556;2022-10-23T07:17:00;19.20;99.90
55036;DHT22;40936;53.008;6.556;2022-10-23T07:19:26;18.30;99.90
55036;DHT22;40936;53.008;6.556;2022-10-23T07:21:52;18.90;99.90
55036;DHT22;40936;53.008;6.556;2022-10-23T07:24:18;18.40;99.90
55036;DHT22;40936;53.008;6.556;2022-10-23T07:26:43;18.50;99.90
55036;DHT22;40936;53.008;6.556;2022-10-23T07:29:10;19.30;99.90
55036;DHT22;40936;53.008;6.556;2022-10-23T07:31:36;19.50;99.90
55036;DHT22;40936;53.008;6.556;2022-10-23T07:34:02;18.40;99.90
55036;DHT22;40936;53.008;6.556;2022-10-23T07:36:28;18.50;99.90
55036;DHT22;40936;53.008;6.556;2022-10-23T07:38:53;19.70;99.90
55036;DHT22;40936;53.008;6.556;2022-10-23T07:41:19;19.70;99.90
55036;DHT22;40936;53.008;6.556;2022-10-23T07:43:45;19.30;99.90
55036;DHT22;40936;53.008;6.556;2022-10-23T07:46:11;18.90;99.90
55036;DHT22;40936;53.008;6.556;2022-10-23T07:48:38;18.70;99.90
55036;DHT22;40936;53.008;6.556;2022-10-23T07:51:07;18.60;99.90
55036;DHT22;40936;53.008;6.556;2022-10-23T07:53:35;19.40;99.90
55036;DHT22;40936;53.008;6.556;2022-10-23T07:56:03;19.60;99.90
55036;DHT22;40936;53.008;6.556;2022-10-23T07:58:34;20.20;99.90
55036;DHT22;40936;53.008;6.556;2022-10-23T08:01:02;20.20;99.90
55036;DHT22;40936;53.008;6.556;2022-10-23T08:03:31;19.80;99.90
55036;DHT22;40936;53.008;6.556;2022-10-23T08:05:58;20.10;99.90
55036;DHT22;40936;53.008;6.556;2022-10-23T08:08:25;19.40;99.90
55036;DHT22;40936;53.008;6.556;2022-10-23T08:10:52;20.30;99.90
55036;DHT22;40936;53.008;6.556;2022-10-23T08:13:21;19.00;99.90
55036;DHT22;40936;53.008;6.556;2022-10-23T08:15:48;20.10;99.90
55036;DHT22;40936;53.008;6.556;2022-10-23T08:18:14;20.00;99.90
55036;DHT22;40936;53.008;6.556;2022-10-23T08:20:45;20.60;99.90
55036;DHT22;40936;53.008;6.556;2022-10-23T08:23:12;19.80;99.90
55036;DHT22;40936;53.008;6.556;2022-10-23T08:25:39;20.10;99.90
55036;DHT22;40936;53.008;6.556;2022-10-23T08:28:06;20.80;99.90
55036;DHT22;40936;53.008;6.556;2022-10-23T08:30:32;19.40;99.90
55036;DHT22;40936;53.008;6.556;2022-10-23T08:32:58;20.60;99.90
55036;DHT22;40936;53.008;6.556;2022-10-23T08:35:23;21.00;99.90
55036;DHT22;40936;53.008;6.556;2022-10-23T08:37:49;19.70;99.90
55036;DHT22;40936;53.008;6.556;2022-10-23T08:40:16;19.90;99.90
55036;DHT22;40936;53.008;6.556;2022-10-23T08:42:48;19.80;99.90
55036;DHT22;40936;53.008;6.556;2022-10-23T08:50:57;20.00;99.90
55036;DHT22;40936;53.008;6.556;2022-10-23T08:53:50;20.50;99.90
55036;DHT22;40936;53.008;6.556;2022-10-23T08:56:26;21.10;99.90
55036;DHT22;40936;53.008;6.556;2022-10-23T09:01:37;20.40;99.90
55036;DHT22;40936;53.008;6.556;2022-10-23T09:04:05;20.20;99.90
55036;DHT22;40936;53.008;6.556;2022-10-23T09:12:23;20.30;99.90
55036;DHT22;40936;53.008;6.556;2022-10-23T09:17:44;20.30;99.90
55036;DHT22;40936;53.008;6.556;2022-10-23T09:20:22;21.20;99.90
55036;DHT22;40936;53.008;6.556;2022-10-23T09:23:04;20.50;99.90
55036;DHT22;40936;53.008;6.556;2022-10-23T09:25:37;20.80;99.90
55036;DHT22;40936;53.008;6.556;2022-10-23T09:28:03;22.40;99.90
55036;DHT22;40936;53.008;6.556;2022-10-23T09:30:33;20.70;99.90
55036;DHT22;40936;53.008;6.556;2022-10-23T09:33:11;21.40;99.90
55036;DHT22;40936;53.008;6.556;2022-10-23T09:38:37;21.90;99.90
55036;DHT22;40936;53.008;6.556;2022-10-23T09:43:38;21.50;99.90
55036;DHT22;40936;53.008;6.556;2022-10-23T09:46:05;21.50;99.90
55036;DHT22;40936;53.008;6.556;2022-10-23T09:48:32;21.00;99.90
55036;DHT22;40936;53.008;6.556;2022-10-23T09:51:18;21.70;99.90
55036;DHT22;40936;53.008;6.556;2022-10-23T09:53:54;21.10;99.90
55036;DHT22;40936;53.008;6.556;2022-10-23T09:56:29;21.90;99.90
55036;DHT22;40936;53.008;6.556;2022-10-23T10:01:31;21.70;99.90
55036;DHT22;40936;53.008;6.556;2022-10-23T10:03:57;21.50;99.90
55036;DHT22;40936;53.008;6.556;2022-10-23T10:06:29;21.50;99.90
55036;DHT22;40936;53.008;6.556;2022-10-23T10:09:01;21.80;99.90
55036;DHT22;40936;53.008;6.556;2022-10-23T10:11:38;21.70;99.90
55036;DHT22;40936;53.008;6.556;2022-10-23T10:14:45;21.80;99.90
55036;DHT22;40936;53.008;6.556;2022-10-23T10:25:25;21.70;99.90
55036;DHT22;40936;53.008;6.556;2022-10-23T10:50:02;21.80;99.90
55036;DHT22;40936;53.008;6.556;2022-10-23T10:52:35;22.50;99.90
55036;DHT22;40936;53.008;6.556;2022-10-23T10:55:24;22.30;99.90
55036;DHT22;40936;53.008;6.556;2022-10-23T10:58:04;22.80;99.90
55036;DHT22;40936;53.008;6.556;2022-10-23T11:00:33;21.60;99.90
55036;DHT22;40936;53.008;6.556;2022-10-23T11:05:47;22.00;99.90
55036;DHT22;40936;53.008;6.556;2022-10-23T11:11:26;22.80;99.90
55036;DHT22;40936;53.008;6.556;2022-10-23T11:13:50;21.80;99.90
55036;DHT22;40936;53.008;6.556;2022-10-23T11:16:27;22.20;99.90
55036;DHT22;40936;53.008;6.556;2022-10-23T11:28:12;22.60;99.90
55036;DHT22;40936;53.008;6.556;2022-10-23T11:31:06;22.10;99.90
55036;DHT22;40936;53.008;6.556;2022-10-23T11:34:06;21.90;99.90
55036;DHT22;40936;53.008;6.556;2022-10-23T11:36:52;22.10;99.90
55036;DHT22;40936;53.008;6.556;2022-10-23T11:39:27;21.90;99.90
55036;DHT22;40936;53.008;6.556;2022-10-23T11:44:40;22.40;99.90
55036;DHT22;40936;53.008;6.556;2022-10-23T11:47:34;21.90;99.90
55036;DHT22;40936;53.008;6.556;2022-10-23T11:52:54;21.90;99.90
55036;DHT22;40936;53.008;6.556;2022-10-23T11:55:23;22.00;99.90
55036;DHT22;40936;53.008;6.556;2022-10-23T12:00:33;22.00;99.90
55036;DHT22;40936;53.008;6.556;2022-10-23T12:03:01;22.30;99.90
55036;DHT22;40936;53.008;6.556;2022-10-23T12:05:37;22.40;99.90
55036;DHT22;40936;53.008;6.556;2022-10-23T12:08:17;22.30;99.90
55036;DHT22;40936;53.008;6.556;2022-10-23T12:10:48;22.40;99.90
55036;DHT22;40936;53.008;6.556;2022-10-23T12:16:01;22.40;99.90
55036;DHT22;40936;53.008;6.556;2022-10-23T12:18:27;22.20;99.90
55036;DHT22;40936;53.008;6.556;2022-10-23T12:20:54;22.40;99.90
55036;DHT22;40936;53.008;6.556;2022-10-23T12:38:18;22.20;99.90
55036;DHT22;40936;53.008;6.556;2022-10-23T12:41:08;22.10;99.90
55036;DHT22;40936;53.008;6.556;2022-10-23T12:43:36;22.00;99.90
55036;DHT22;40936;53.008;6.556;2022-10-23T12:46:25;21.90;99.90
55036;DHT22;40936;53.008;6.556;2022-10-23T12:48:53;21.90;99.90
55036;DHT22;40936;53.008;6.556;2022-10-23T12:51:29;21.90;99.90
55036;DHT22;40936;53.008;6.556;2022-10-23T12:53:56;21.80;99.90
55036;DHT22;40936;53.008;6.556;2022-10-23T12:56:24;21.80;99.90
55036;DHT22;40936;53.008;6.556;2022-10-23T12:58:56;21.70;99.90
55036;DHT22;40936;53.008;6.556;2022-10-23T13:01:33;21.80;99.90
55036;DHT22;40936;53.008;6.556;2022-10-23T13:06:45;21.70;1.00
55036;DHT22;40936;53.008;6.556;2022-10-23T13:09:27;21.60;99.90
55036;DHT22;40936;53.008;6.556;2022-10-23T13:11:54;21.60;99.90
55036;DHT22;40936;53.008;6.556;2022-10-23T13:14:36;21.60;99.90
55036;DHT22;40936;53.008;6.556;2022-10-23T13:17:04;21.60;99.90
55036;DHT22;40936;53.008;6.556;2022-10-23T13:19:31;21.70;99.90
55036;DHT22;40936;53.008;6.556;2022-10-23T13:21:57;21.70;1.00
55036;DHT22;40936;53.008;6.556;2022-10-23T13:24:25;21.80;99.90
55036;DHT22;40936;53.008;6.556;2022-10-23T13:26:51;21.80;1.00
55036;DHT22;40936;53.008;6.556;2022-10-23T13:29:29;21.80;1.00
55036;DHT22;40936;53.008;6.556;2022-10-23T13:31:56;21.80;1.00
55036;DHT22;40936;53.008;6.556;2022-10-23T13:36:56;21.90;99.90
55036;DHT22;40936;53.008;6.556;2022-10-23T13:39:25;21.80;99.90
55036;DHT22;40936;53.008;6.556;2022-10-23T13:41:51;21.80;99.90
55036;DHT22;40936;53.008;6.556;2022-10-23T13:44:19;21.80;99.90
55036;DHT22;40936;53.008;6.556;2022-10-23T13:46:45;21.80;99.90
55036;DHT22;40936;53.008;6.556;2022-10-23T13:49:12;21.80;89.90
55036;DHT22;40936;53.008;6.556;2022-10-23T13:51:45;21.80;93.80
55036;DHT22;40936;53.008;6.556;2022-10-23T13:54:15;21.80;69.40
55036;DHT22;40936;53.008;6.556;2022-10-23T13:56:41;21.70;46.70
55036;DHT22;40936;53.008;6.556;2022-10-23T13:59:11;21.70;71.10
55036;DHT22;40936;53.008;6.556;2022-10-23T14:01:37;21.70;77.70
55036;DHT22;40936;53.008;6.556;2022-10-23T14:04:03;21.70;1.00
55036;DHT22;40936;53.008;6.556;2022-10-23T14:06:30;21.70;1.00
55036;DHT22;40936;53.008;6.556;2022-10-23T14:08:56;21.70;12.60
55036;DHT22;40936;53.008;6.556;2022-10-23T14:11:23;21.70;1.00
55036;DHT22;40936;53.008;6.556;2022-10-23T14:13:48;21.70;1.00
55036;DHT22;40936;53.008;6.556;2022-10-23T14:16:19;21.70;57.20
55036;DHT22;40936;53.008;6.556;2022-10-23T14:18:48;21.60;1.00
55036;DHT22;40936;53.008;6.556;2022-10-23T14:21:16;21.60;1.00
55036;DHT22;40936;53.008;6.556;2022-10-23T14:23:44;21.60;35.20
55036;DHT22;40936;53.008;6.556;2022-10-23T14:26:16;21.60;23.50
55036;DHT22;40936;53.008;6.556;2022-10-23T14:28:43;21.60;11.80
55036;DHT22;40936;53.008;6.556;2022-10-23T14:31:14;21.50;32.00
55036;DHT22;40936;53.008;6.556;2022-10-23T14:33:40;21.50;23.20
55036;DHT22;40936;53.008;6.556;2022-10-23T14:36:07;21.50;25.60
55036;DHT22;40936;53.008;6.556;2022-10-23T14:38:33;21.40;75.00
55036;DHT22;40936;53.008;6.556;2022-10-23T14:40:58;21.40;81.80
55036;DHT22;40936;53.008;6.556;2022-10-23T14:43:24;21.50;53.50
55036;DHT22;40936;53.008;6.556;2022-10-23T14:45:51;21.40;1.00
55036;DHT22;40936;53.008;6.556;2022-10-23T14:48:17;21.40;13.10
55036;DHT22;40936;53.008;6.556;2022-10-23T14:50:47;21.40;1.00
55036;DHT22;40936;53.008;6.556;2022-10-23T14:53:13;21.40;1.00
55036;DHT22;40936;53.008;6.556;2022-10-23T14:55:39;21.40;1.00
55036;DHT22;40936;53.008;6.556;2022-10-23T14:58:06;21.40;1.00
55036;DHT22;40936;53.008;6.556;2022-10-23T15:00:31;21.40;1.00
55036;DHT22;40936;53.008;6.556;2022-10-23T15:02:57;21.40;1.00
55036;DHT22;40936;53.008;6.556;2022-10-23T15:05:23;21.40;1.00
55036;DHT22;40936;53.008;6.556;2022-10-23T15:07:48;21.40;1.00
55036;DHT22;40936;53.008;6.556;2022-10-23T15:10:14;21.40;1.00
55036;DHT22;40936;53.008;6.556;2022-10-23T15:12:40;21.40;1.00
55036;DHT22;40936;53.008;6.556;2022-10-23T15:15:06;21.40;1.00
55036;DHT22;40936;53.008;6.556;2022-10-23T15:17:33;21.40;1.00
55036;DHT22;40936;53.008;6.556;2022-10-23T15:20:02;21.40;1.00
55036;DHT22;40936;53.008;6.556;2022-10-23T15:22:28;21.30;1.00
55036;DHT22;40936;53.008;6.556;2022-10-23T15:24:53;21.30;1.00
55036;DHT22;40936;53.008;6.556;2022-10-23T15:27:21;21.30;1.00
55036;DHT22;40936;53.008;6.556;2022-10-23T15:29:47;21.30;1.00
55036;DHT22;40936;53.008;6.556;2022-10-23T15:32:13;21.30;1.00
55036;DHT22;40936;53.008;6.556;2022-10-23T15:34:40;21.30;1.00
55036;DHT22;40936;53.008;6.556;2022-10-23T15:37:07;21.30;1.00
55036;DHT22;40936;53.008;6.556;2022-10-23T15:39:33;21.30;1.00
55036;DHT22;40936;53.008;6.556;2022-10-23T15:42:02;21.30;1.00
55036;DHT22;40936;53.008;6.556;2022-10-23T15:44:30;21.30;1.00
55036;DHT22;40936;53.008;6.556;2022-10-23T15:46:56;21.20;1.00
55036;DHT22;40936;53.008;6.556;2022-10-23T15:49:22;21.20;1.00
55036;DHT22;40936;53.008;6.556;2022-10-23T15:51:50;21.20;1.00
55036;DHT22;40936;53.008;6.556;2022-10-23T15:54:17;21.20;1.00
55036;DHT22;40936;53.008;6.556;2022-10-23T15:56:49;21.20;1.00
55036;DHT22;40936;53.008;6.556;2022-10-23T15:59:16;21.20;1.00
55036;DHT22;40936;53.008;6.556;2022-10-23T16:01:42;21.10;1.00
55036;DHT22;40936;53.008;6.556;2022-10-23T16:04:08;21.10;1.00
55036;DHT22;40936;53.008;6.556;2022-10-23T16:06:34;21.00;1.00
55036;DHT22;40936;53.008;6.556;2022-10-23T16:09:00;21.00;1.00
55036;DHT22;40936;53.008;6.556;2022-10-23T16:11:28;20.90;1.00
55036;DHT22;40936;53.008;6.556;2022-10-23T16:13:55;20.90;31.30
55036;DHT22;40936;53.008;6.556;2022-10-23T16:16:21;20.90;53.20
55036;DHT22;40936;53.008;6.556;2022-10-23T16:18:47;20.80;89.20
55036;DHT22;40936;53.008;6.556;2022-10-23T16:21:21;20.80;99.90
55036;DHT22;40936;53.008;6.556;2022-10-23T16:23:48;20.80;99.90
55036;DHT22;40936;53.008;6.556;2022-10-23T16:26:14;20.70;99.90
55036;DHT22;40936;53.008;6.556;2022-10-23T16:28:40;20.60;99.90
55036;DHT22;40936;53.008;6.556;2022-10-23T16:31:13;20.60;99.90
55036;DHT22;40936;53.008;6.556;2022-10-23T16:33:39;20.60;99.90
55036;DHT22;40936;53.008;6.556;2022-10-23T16:36:06;20.50;99.90
55036;DHT22;40936;53.008;6.556;2022-10-23T16:38:32;20.50;99.90
55036;DHT22;40936;53.008;6.556;2022-10-23T16:40:58;20.50;99.90
55036;DHT22;40936;53.008;6.556;2022-10-23T16:43:24;20.50;99.90
55036;DHT22;40936;53.008;6.556;2022-10-23T16:46:11;20.50;99.90
55036;DHT22;40936;53.008;6.556;2022-10-23T16:48:37;20.40;99.90
55036;DHT22;40936;53.008;6.556;2022-10-23T16:51:12;20.40;1.00
55036;DHT22;40936;53.008;6.556;2022-10-23T16:53:39;20.30;1.00
55036;DHT22;40936;53.008;6.556;2022-10-23T16:56:07;20.20;1.00
55036;DHT22;40936;53.008;6.556;2022-10-23T16:58:33;20.20;93.00
55036;DHT22;40936;53.008;6.556;2022-10-23T17:01:01;20.10;99.90
55036;DHT22;40936;53.008;6.556;2022-10-23T17:03:28;20.00;99.90
55036;DHT22;40936;53.008;6.556;2022-10-23T17:06:02;19.90;99.90
55036;DHT22;40936;53.008;6.556;2022-10-23T17:08:27;19.90;99.90
55036;DHT22;40936;53.008;6.556;2022-10-23T17:13:36;19.80;1.00
55036;DHT22;40936;53.008;6.556;2022-10-23T17:16:03;19.80;92.20
55036;DHT22;40936;53.008;6.556;2022-10-23T17:18:30;19.90;99.90
55036;DHT22;40936;53.008;6.556;2022-10-23T17:20:56;19.90;99.90
55036;DHT22;40936;53.008;6.556;2022-10-23T17:23:23;19.90;99.90
55036;DHT22;40936;53.008;6.556;2022-10-23T17:25:49;20.00;99.90
55036;DHT22;40936;53.008;6.556;2022-10-23T17:28:15;20.00;99.90
55036;DHT22;40936;53.008;6.556;2022-10-23T17:30:40;20.00;99.90
55036;DHT22;40936;53.008;6.556;2022-10-23T17:33:06;20.00;56.10
55036;DHT22;40936;53.008;6.556;2022-10-23T17:35:32;20.10;26.60
55036;DHT22;40936;53.008;6.556;2022-10-23T17:37:57;20.10;1.00
55036;DHT22;40936;53.008;6.556;2022-10-23T17:40:23;20.20;1.00
55036;DHT22;40936;53.008;6.556;2022-10-23T17:42:51;20.20;1.00
55036;DHT22;40936;53.008;6.556;2022-10-23T17:45:17;20.20;99.90
55036;DHT22;40936;53.008;6.556;2022-10-23T17:47:43;20.20;99.90